createdAt,value
2019-02-06T00:01:02.342Z,102331.58
2019-02-06T00:02:15.165Z,102330.70
2019-02-06T00:03:22.427Z,102329.42
2019-02-06T00:04:27.563Z,102330.48
2019-02-06T00:05:32.432Z,102326.98
2019-02-06T00:06:37.297Z,102324.61
2019-02-06T00:07:42.801Z,102326.78
2019-02-06T00:08:47.884Z,102323.06
2019-02-06T00:09:52.954Z,102326.16
2019-02-06T00:10:58.091Z,102331.73
2019-02-06T00:12:03.338Z,102334.02
2019-02-06T00:13:08.970Z,102333.34
2019-02-06T00:14:13.761Z,102332.15
2019-02-06T00:15:18.643Z,102341.84
2019-02-06T00:16:23.833Z,102336.94
2019-02-06T00:17:28.344Z,102337.22
2019-02-06T00:18:35.959Z,102340.48
2019-02-06T00:19:41.122Z,102340.16
2019-02-06T00:20:46.474Z,102341.36
2019-02-06T00:21:51.431Z,102339.88
2019-02-06T00:22:56.835Z,102343.28
2019-02-06T00:24:01.936Z,102344.76
2019-02-06T00:25:06.588Z,102347.08
2019-02-06T00:26:11.681Z,102340.83
2019-02-06T00:27:16.821Z,102337.52
2019-02-06T00:28:21.584Z,102340.13
2019-02-06T00:29:27.004Z,102338.80
2019-02-06T00:30:35.158Z,102339.08
2019-02-06T00:31:40.519Z,102333.10
2019-02-06T00:32:45.307Z,102331.04
2019-02-06T00:33:50.672Z,102333.21
2019-02-06T00:34:55.517Z,102337.05
2019-02-06T00:36:00.306Z,102337.31
2019-02-06T00:37:05.262Z,102334.66
2019-02-06T00:38:10.056Z,102334.11
2019-02-06T00:39:14.838Z,102332.34
2019-02-06T00:40:19.635Z,102331.66
2019-02-06T00:41:24.419Z,102337.80
2019-02-06T00:42:29.637Z,102334.59
2019-02-06T00:43:34.770Z,102332.52
2019-02-06T00:44:39.255Z,102325.30
2019-02-06T00:45:44.379Z,102328.53
2019-02-06T00:46:49.149Z,102327.03
2019-02-06T00:47:53.943Z,102327.73
2019-02-06T00:48:58.881Z,102331.07
2019-02-06T00:50:04.037Z,102327.52
2019-02-06T00:51:09.224Z,102328.02
2019-02-06T00:52:14.320Z,102327.86
2019-02-06T00:53:19.733Z,102325.98
2019-02-06T00:54:24.877Z,102323.81
2019-02-06T00:55:29.649Z,102323.52
2019-02-06T00:56:35.244Z,102326.25
2019-02-06T00:57:40.368Z,102330.66
2019-02-06T00:58:45.163Z,102323.70
2019-02-06T00:59:50.254Z,102326.14
2019-02-06T01:00:55.720Z,102324.95
2019-02-06T01:02:00.668Z,102327.22
2019-02-06T01:03:05.495Z,102327.23
2019-02-06T01:04:11.148Z,102329.27
2019-02-06T01:05:16.203Z,102327.41
2019-02-06T01:06:21.384Z,102325.27
2019-02-06T01:07:26.552Z,102328.41
2019-02-06T01:08:31.853Z,102325.82
2019-02-06T01:09:36.639Z,102329.05
2019-02-06T01:10:41.699Z,102324.73
2019-02-06T01:11:46.796Z,102321.34
2019-02-06T01:12:51.598Z,102331.11
2019-02-06T01:13:56.364Z,102335.31
2019-02-06T01:15:01.152Z,102326.92
2019-02-06T01:16:06.302Z,102331.64
2019-02-06T01:17:11.070Z,102326.39
2019-02-06T01:18:15.890Z,102322.19
2019-02-06T01:19:20.660Z,102319.92
2019-02-06T01:20:25.448Z,102320.03
2019-02-06T01:21:30.310Z,102311.79
2019-02-06T01:22:35.766Z,102313.27
2019-02-06T01:23:40.313Z,102316.38
2019-02-06T01:24:45.209Z,102314.72
2019-02-06T01:25:50.306Z,102307.70
2019-02-06T01:26:56.390Z,102307.97
2019-02-06T01:28:01.194Z,102311.11
2019-02-06T01:29:06.416Z,102305.05
2019-02-06T01:30:14.859Z,102311.02
2019-02-06T01:31:23.717Z,102306.33
2019-02-06T01:32:28.859Z,102311.37
2019-02-06T01:33:33.972Z,102310.83
2019-02-06T01:34:38.827Z,102309.63
2019-02-06T01:35:49.903Z,102305.92
2019-02-06T01:36:50.616Z,102310.23
2019-02-06T01:37:55.711Z,102310.61
2019-02-06T01:39:00.567Z,102305.45
2019-02-06T01:40:06.139Z,102303.70
2019-02-06T01:41:11.563Z,102305.56
2019-02-06T01:42:16.385Z,102309.74
2019-02-06T01:43:21.524Z,102308.70
2019-02-06T01:44:27.398Z,102304.86
2019-02-06T01:45:32.221Z,102308.59
2019-02-06T01:46:37.286Z,102312.49
2019-02-06T01:47:42.928Z,102307.13
2019-02-06T01:48:48.054Z,102307.91
2019-02-06T01:49:53.353Z,102313.88
2019-02-06T01:50:58.440Z,102307.35
2019-02-06T01:52:03.212Z,102306.19
2019-02-06T01:53:08.037Z,102308.66
2019-02-06T01:54:12.839Z,102307.11
2019-02-06T01:55:17.653Z,102308.08
2019-02-06T01:56:22.436Z,102305.42
2019-02-06T01:57:27.270Z,102302.30
2019-02-06T01:58:32.375Z,102302.38
2019-02-06T01:59:37.325Z,102308.02
2019-02-06T02:00:42.557Z,102303.53
2019-02-06T02:01:47.687Z,102306.30
2019-02-06T02:02:52.760Z,102306.16
2019-02-06T02:03:57.759Z,102304.78
2019-02-06T02:05:03.410Z,102304.06
2019-02-06T02:06:08.568Z,102304.84
2019-02-06T02:07:13.364Z,102302.56
2019-02-06T02:08:18.160Z,102295.80
2019-02-06T02:09:23.631Z,102294.61
2019-02-06T02:10:28.837Z,102293.06
2019-02-06T02:11:34.022Z,102289.44
2019-02-06T02:12:38.810Z,102288.55
2019-02-06T02:13:43.629Z,102286.33
2019-02-06T02:14:48.712Z,102287.70
2019-02-06T02:15:53.610Z,102291.62
2019-02-06T02:16:59.158Z,102278.31
2019-02-06T02:18:04.294Z,102279.67
2019-02-06T02:19:09.994Z,102286.12
2019-02-06T02:20:17.271Z,102282.50
2019-02-06T02:21:22.210Z,102282.70
2019-02-06T02:22:27.347Z,102276.75
2019-02-06T02:23:32.217Z,102279.45
2019-02-06T02:24:37.709Z,102277.31
2019-02-06T02:25:43.539Z,102277.81
2019-02-06T02:26:48.618Z,102269.03
2019-02-06T02:27:53.110Z,102267.07
2019-02-06T02:28:57.887Z,102268.73
2019-02-06T02:30:02.690Z,102274.00
2019-02-06T02:31:07.172Z,102259.52
2019-02-06T02:32:12.251Z,102268.42
2019-02-06T02:33:17.065Z,102264.60
2019-02-06T02:34:22.255Z,102266.31
2019-02-06T02:35:27.451Z,102268.77
2019-02-06T02:36:35.102Z,102264.73
2019-02-06T02:37:39.990Z,102262.80
2019-02-06T02:38:45.180Z,102250.83
2019-02-06T02:39:50.737Z,102255.68
2019-02-06T02:40:56.255Z,102250.52
2019-02-06T02:42:01.394Z,102249.16
2019-02-06T02:43:06.593Z,102248.29
2019-02-06T02:44:11.846Z,102235.57
2019-02-06T02:45:17.792Z,102234.77
2019-02-06T02:46:23.311Z,102233.13
2019-02-06T02:47:29.129Z,102233.02
2019-02-06T02:48:34.794Z,102238.50
2019-02-06T02:49:39.642Z,102223.34
2019-02-06T02:50:44.802Z,102227.66
2019-02-06T02:51:49.576Z,102227.28
2019-02-06T02:52:54.090Z,102224.62
2019-02-06T02:53:59.615Z,102222.85
2019-02-06T02:55:04.721Z,102222.17
2019-02-06T02:56:09.501Z,102220.78
2019-02-06T02:57:15.010Z,102218.42
2019-02-06T02:58:20.140Z,102218.82
2019-02-06T02:59:24.972Z,102218.42
2019-02-06T03:00:43.891Z,102217.64
2019-02-06T03:02:13.398Z,102216.76
2019-02-06T03:03:32.982Z,102213.15
2019-02-06T03:04:45.058Z,102208.75
2019-02-06T03:05:49.850Z,102212.98
2019-02-06T03:06:55.671Z,102208.96
2019-02-06T03:08:00.916Z,102213.16
2019-02-06T03:09:09.486Z,102211.39
2019-02-06T03:10:14.278Z,102205.34
2019-02-06T03:11:19.416Z,102211.41
2019-02-06T03:12:24.374Z,102211.41
2019-02-06T03:13:30.201Z,102216.37
2019-02-06T03:14:35.664Z,102213.73
2019-02-06T03:15:41.212Z,102209.45
2019-02-06T03:16:46.438Z,102204.54
2019-02-06T03:17:50.935Z,102200.84
2019-02-06T03:18:55.705Z,102198.03
2019-02-06T03:20:00.806Z,102185.98
2019-02-06T03:21:05.606Z,102182.06
2019-02-06T03:22:10.400Z,102181.88
2019-02-06T03:23:14.952Z,102182.55
2019-02-06T03:24:20.605Z,102183.22
2019-02-06T03:25:25.450Z,102185.09
2019-02-06T03:26:30.268Z,102180.78
2019-02-06T03:27:35.772Z,102177.67
2019-02-06T03:28:40.633Z,102179.00
2019-02-06T03:29:45.567Z,102181.77
2019-02-06T03:30:50.048Z,102169.55
2019-02-06T03:31:54.837Z,102176.17
2019-02-06T03:32:59.980Z,102171.59
2019-02-06T03:34:05.124Z,102174.91
2019-02-06T03:35:09.955Z,102169.55
2019-02-06T03:36:15.026Z,102163.30
2019-02-06T03:37:20.493Z,102169.73
2019-02-06T03:38:25.898Z,102164.36
2019-02-06T03:39:30.697Z,102159.77
2019-02-06T03:40:35.494Z,102162.09
2019-02-06T03:41:40.669Z,102162.20
2019-02-06T03:42:45.751Z,102157.11
2019-02-06T03:43:50.965Z,102150.16
2019-02-06T03:44:55.458Z,102155.35
2019-02-06T03:46:00.560Z,102154.28
2019-02-06T03:47:05.382Z,102151.42
2019-02-06T03:48:10.155Z,102151.42
2019-02-06T03:49:15.174Z,102155.66
2019-02-06T03:50:19.990Z,102146.94
2019-02-06T03:51:24.757Z,102144.61
2019-02-06T03:52:31.977Z,102147.33
2019-02-06T03:53:36.872Z,102147.44
2019-02-06T03:54:42.066Z,102144.61
2019-02-06T03:55:47.538Z,102150.75
2019-02-06T03:56:52.687Z,102152.52
2019-02-06T03:57:57.486Z,102159.87
2019-02-06T03:59:02.592Z,102157.61
2019-02-06T04:00:09.272Z,102151.36
2019-02-06T04:01:15.350Z,102154.28
2019-02-06T04:02:20.714Z,102156.34
2019-02-06T04:03:27.156Z,102149.38
2019-02-06T04:04:32.063Z,102152.52
2019-02-06T04:05:36.893Z,102154.17
2019-02-06T04:06:52.778Z,102156.62
2019-02-06T04:07:47.896Z,102153.12
2019-02-06T04:08:53.086Z,102154.95
2019-02-06T04:09:57.880Z,102152.13
2019-02-06T04:11:03.045Z,102156.82
2019-02-06T04:12:08.467Z,102150.25
2019-02-06T04:13:13.535Z,102146.27
2019-02-06T04:14:18.300Z,102143.72
2019-02-06T04:15:24.150Z,102144.99
2019-02-06T04:16:29.634Z,102138.25
2019-02-06T04:17:34.913Z,102141.67
2019-02-06T04:18:39.720Z,102143.13
2019-02-06T04:19:44.625Z,102143.90
2019-02-06T04:20:49.172Z,102145.27
2019-02-06T04:21:54.889Z,102145.66
2019-02-06T04:23:00.643Z,102148.98
2019-02-06T04:24:05.845Z,102140.69
2019-02-06T04:25:10.916Z,102138.53
2019-02-06T04:26:16.091Z,102147.71
2019-02-06T04:27:20.871Z,102143.22
2019-02-06T04:28:25.644Z,102142.73
2019-02-06T04:29:30.479Z,102143.02
2019-02-06T04:30:35.326Z,102143.22
2019-02-06T04:31:40.495Z,102141.67
2019-02-06T04:32:45.400Z,102141.95
2019-02-06T04:33:50.338Z,102150.36
2019-02-06T04:34:55.525Z,102144.22
2019-02-06T04:36:00.538Z,102142.13
2019-02-06T04:37:06.879Z,102146.05
2019-02-06T04:38:11.448Z,102145.06
2019-02-06T04:39:16.671Z,102144.10
2019-02-06T04:40:21.505Z,102146.45
2019-02-06T04:41:26.998Z,102141.95
2019-02-06T04:42:32.623Z,102145.56
2019-02-06T04:43:37.436Z,102147.22
2019-02-06T04:44:42.982Z,102144.38
2019-02-06T04:45:47.911Z,102148.87
2019-02-06T04:46:53.227Z,102148.70
2019-02-06T04:47:58.334Z,102150.14
2019-02-06T04:49:03.149Z,102142.05
2019-02-06T04:50:09.191Z,102148.48
2019-02-06T04:51:14.353Z,102144.10
2019-02-06T04:52:19.141Z,102147.59
2019-02-06T04:53:24.327Z,102134.98
2019-02-06T04:54:29.972Z,102132.16
2019-02-06T04:55:35.179Z,102131.17
2019-02-06T04:56:40.356Z,102127.28
2019-02-06T04:57:45.242Z,102126.48
2019-02-06T04:58:50.373Z,102124.14
2019-02-06T04:59:55.152Z,102124.43
2019-02-06T05:01:00.578Z,102118.07
2019-02-06T05:02:05.076Z,102119.73
2019-02-06T05:03:10.528Z,102113.87
2019-02-06T05:04:15.024Z,102116.12
2019-02-06T05:05:19.532Z,102109.55
2019-02-06T05:06:24.337Z,102110.34
2019-02-06T05:07:29.956Z,102109.88
2019-02-06T05:08:34.732Z,102103.02
2019-02-06T05:09:40.648Z,102103.52
2019-02-06T05:10:45.782Z,102101.36
2019-02-06T05:11:50.656Z,102104.97
2019-02-06T05:12:55.780Z,102100.09
2019-02-06T05:14:01.373Z,102101.75
2019-02-06T05:15:06.600Z,102109.95
2019-02-06T05:16:11.113Z,102105.56
2019-02-06T05:17:16.281Z,102108.50
2019-02-06T05:18:21.301Z,102100.97
2019-02-06T05:19:26.660Z,102107.33
2019-02-06T05:20:39.520Z,102101.75
2019-02-06T05:21:45.002Z,102101.25
2019-02-06T05:22:50.199Z,102101.16
2019-02-06T05:23:56.163Z,102101.36
2019-02-06T05:25:01.393Z,102101.64
2019-02-06T05:26:05.899Z,102095.46
2019-02-06T05:27:11.087Z,102092.84
2019-02-06T05:28:18.289Z,102088.64
2019-02-06T05:29:22.252Z,102091.64
2019-02-06T05:30:27.056Z,102087.53
2019-02-06T05:31:32.278Z,102091.08
2019-02-06T05:32:42.789Z,102085.39
2019-02-06T05:33:45.155Z,102091.47
2019-02-06T05:34:50.108Z,102084.23
2019-02-06T05:35:55.226Z,102093.12
2019-02-06T05:37:00.441Z,102096.73
2019-02-06T05:38:05.258Z,102086.28
2019-02-06T05:39:10.497Z,102083.73
2019-02-06T05:40:15.005Z,102089.81
2019-02-06T05:41:21.045Z,102088.25
2019-02-06T05:42:25.856Z,102089.03
2019-02-06T05:43:30.730Z,102091.08
2019-02-06T05:44:35.550Z,102088.25
2019-02-06T05:45:40.782Z,102091.75
2019-02-06T05:46:45.894Z,102085.00
2019-02-06T05:47:50.413Z,102079.53
2019-02-06T05:48:55.282Z,102088.72
2019-02-06T05:50:00.493Z,102082.67
2019-02-06T05:51:05.621Z,102084.44
2019-02-06T05:52:10.712Z,102079.14
2019-02-06T05:53:16.227Z,102080.13
2019-02-06T05:54:21.390Z,102081.30
2019-02-06T05:55:26.591Z,102082.18
2019-02-06T05:56:31.426Z,102077.59
2019-02-06T05:57:36.919Z,102078.47
2019-02-06T05:58:42.730Z,102078.08
2019-02-06T05:59:48.058Z,102079.74
2019-02-06T06:00:52.908Z,102084.62
2019-02-06T06:01:57.688Z,102081.41
2019-02-06T06:03:02.764Z,102085.29
2019-02-06T06:04:07.556Z,102080.80
2019-02-06T06:05:12.800Z,102089.03
2019-02-06T06:06:17.595Z,102086.10
2019-02-06T06:07:22.374Z,102084.91
2019-02-06T06:08:27.562Z,102085.89
2019-02-06T06:09:32.696Z,102083.34
2019-02-06T06:10:37.678Z,102080.13
2019-02-06T06:11:42.873Z,102081.19
2019-02-06T06:12:47.968Z,102080.30
2019-02-06T06:13:53.221Z,102080.03
2019-02-06T06:14:58.400Z,102075.93
2019-02-06T06:16:03.173Z,102081.58
2019-02-06T06:17:08.586Z,102076.70
2019-02-06T06:18:13.680Z,102074.66
2019-02-06T06:19:19.201Z,102081.97
2019-02-06T06:20:23.720Z,102069.08
2019-02-06T06:21:28.216Z,102070.24
2019-02-06T06:22:33.124Z,102072.89
2019-02-06T06:23:38.017Z,102068.69
2019-02-06T06:24:43.139Z,102072.30
2019-02-06T06:25:48.565Z,102074.84
2019-02-06T06:26:54.211Z,102074.06
2019-02-06T06:27:59.378Z,102070.45
2019-02-06T06:29:04.180Z,102070.73
2019-02-06T06:30:14.440Z,102067.41
2019-02-06T06:31:19.299Z,102060.36
2019-02-06T06:32:23.806Z,102063.88
2019-02-06T06:33:29.804Z,102065.76
2019-02-06T06:34:35.145Z,102061.73
2019-02-06T06:35:40.452Z,102057.53
2019-02-06T06:36:45.688Z,102053.22
2019-02-06T06:38:00.729Z,102063.39
2019-02-06T06:38:58.005Z,102059.19
2019-02-06T06:40:03.183Z,102057.73
2019-02-06T06:41:08.049Z,102043.37
2019-02-06T06:42:13.196Z,102048.73
2019-02-06T06:43:17.692Z,102049.41
2019-02-06T06:44:22.831Z,102046.86
2019-02-06T06:45:27.922Z,102047.57
2019-02-06T06:46:33.139Z,102042.17
2019-02-06T06:47:38.007Z,102046.58
2019-02-06T06:48:42.820Z,102045.03
2019-02-06T06:49:48.052Z,102044.71
2019-02-06T06:50:53.670Z,102048.24
2019-02-06T06:51:58.487Z,102047.85
2019-02-06T06:53:03.966Z,102048.45
2019-02-06T06:54:08.874Z,102044.14
2019-02-06T06:55:14.241Z,102044.53
2019-02-06T06:56:19.832Z,102041.60
2019-02-06T06:57:24.608Z,102040.83
2019-02-06T06:58:29.392Z,102036.20
2019-02-06T06:59:34.657Z,102037.40
2019-02-06T07:00:39.417Z,102043.55
2019-02-06T07:01:44.201Z,102038.84
2019-02-06T07:02:48.703Z,102043.65
2019-02-06T07:03:53.940Z,102035.70
2019-02-06T07:04:59.051Z,102036.20
2019-02-06T07:16:22.232Z,102024.57
2019-02-06T07:17:27.070Z,102035.80
2019-02-06T07:18:31.955Z,102034.92
2019-02-06T07:19:36.262Z,102040.50
2019-02-06T07:20:40.808Z,102034.63
2019-02-06T07:21:45.117Z,102036.28
2019-02-06T07:22:49.677Z,102037.37
2019-02-06T07:23:55.122Z,102034.23
2019-02-06T07:24:59.717Z,102030.30
2019-02-06T07:26:03.787Z,102026.09
2019-02-06T07:27:08.658Z,102032.84
2019-02-06T07:28:13.039Z,102030.13
2019-02-06T07:29:17.330Z,102028.34
2019-02-06T07:30:29.505Z,102033.82
2019-02-06T07:31:33.897Z,102022.64
2019-02-06T07:32:38.498Z,102022.36
2019-02-06T07:33:43.080Z,102026.84
2019-02-06T07:34:47.153Z,102026.05
2019-02-06T07:35:51.992Z,102023.41
2019-02-06T07:36:56.275Z,102017.81
2019-02-06T07:38:01.303Z,102023.78
2019-02-06T07:39:08.694Z,102032.11
2019-02-06T07:40:13.009Z,102024.87
2019-02-06T07:41:17.626Z,102025.23
2019-02-06T07:42:22.118Z,102024.45
2019-02-06T07:43:26.691Z,102025.91
2019-02-06T07:44:31.081Z,102029.91
2019-02-06T07:45:35.375Z,102020.68
2019-02-06T07:46:39.942Z,102037.11
2019-02-06T07:47:44.319Z,102031.92
2019-02-06T07:48:48.914Z,102031.41
2019-02-06T07:49:53.225Z,102025.55
2019-02-06T07:50:57.778Z,102033.56
2019-02-06T07:52:02.358Z,102026.31
2019-02-06T07:53:06.650Z,102022.75
2019-02-06T07:54:11.225Z,102029.42
2019-02-06T07:55:15.791Z,102033.80
2019-02-06T07:56:20.356Z,102024.23
2019-02-06T07:57:24.656Z,102027.03
2019-02-06T07:58:29.332Z,102026.02
2019-02-06T07:59:36.700Z,102026.41
2019-02-06T08:00:41.307Z,102028.93
2019-02-06T08:01:45.868Z,102026.55
2019-02-06T08:02:50.464Z,102029.06
2019-02-06T08:03:55.039Z,102023.73
2019-02-06T08:04:59.873Z,102032.00
2019-02-06T08:06:04.172Z,102033.66
2019-02-06T08:07:08.228Z,102034.16
2019-02-06T08:08:12.548Z,102026.71
2019-02-06T08:09:17.136Z,102035.62
2019-02-06T08:10:23.577Z,102025.53
2019-02-06T08:11:28.145Z,102036.34
2019-02-06T08:12:35.531Z,102028.54
2019-02-06T08:13:40.098Z,102030.76
2019-02-06T08:14:44.662Z,102038.70
2019-02-06T08:15:49.504Z,102031.58
2019-02-06T08:16:54.538Z,102030.13
2019-02-06T08:17:59.025Z,102032.34
2019-02-06T08:19:03.394Z,102032.21
2019-02-06T08:20:09.044Z,102028.53
2019-02-06T08:21:13.933Z,102033.46
2019-02-06T08:22:18.518Z,102032.15
2019-02-06T08:23:22.798Z,102029.63
2019-02-06T08:24:27.404Z,102039.47
2019-02-06T08:25:31.935Z,102032.89
2019-02-06T08:26:36.536Z,102031.88
2019-02-06T08:27:40.912Z,102031.13
2019-02-06T08:28:45.788Z,102030.99
2019-02-06T08:29:50.667Z,102032.94
2019-02-06T08:30:55.493Z,102031.42
2019-02-06T08:31:59.810Z,102030.02
2019-02-06T08:33:04.372Z,102030.41
2019-02-06T08:34:08.951Z,102031.82
2019-02-06T08:35:13.802Z,102025.41
2019-02-06T08:36:18.133Z,102037.27
2019-02-06T08:37:22.694Z,102034.42
2019-02-06T08:38:27.267Z,102031.53
2019-02-06T08:39:31.580Z,102033.64
2019-02-06T08:40:36.236Z,102035.60
2019-02-06T08:41:40.538Z,102036.19
2019-02-06T08:42:45.106Z,102033.75
2019-02-06T08:43:49.705Z,102035.95
2019-02-06T08:44:54.303Z,102031.73
2019-02-06T08:45:59.152Z,102032.12
2019-02-06T08:47:03.733Z,102030.80
2019-02-06T08:48:08.036Z,102030.37
2019-02-06T08:49:12.331Z,102032.08
2019-02-06T08:50:17.256Z,102041.20
2019-02-06T08:51:22.929Z,102039.34
2019-02-06T08:52:27.500Z,102040.66
2019-02-06T08:53:32.383Z,102040.13
2019-02-06T08:54:37.015Z,102047.13
2019-02-06T08:55:41.588Z,102046.16
2019-02-06T08:56:45.981Z,102041.31
2019-02-06T08:57:50.837Z,102045.57
2019-02-06T08:58:55.144Z,102043.66
2019-02-06T08:59:59.479Z,102041.55
2019-02-06T09:01:03.812Z,102042.42
2019-02-06T09:02:08.101Z,102042.72
2019-02-06T09:03:12.968Z,102043.41
2019-02-06T09:04:17.558Z,102035.75
2019-02-06T09:05:22.425Z,102041.59
2019-02-06T09:06:26.716Z,102036.00
2019-02-06T09:07:31.250Z,102044.49
2019-02-06T09:08:35.820Z,102035.30
2019-02-06T09:09:43.460Z,102042.16
2019-02-06T09:10:46.470Z,102045.80
2019-02-06T09:11:50.768Z,102037.25
2019-02-06T09:12:55.740Z,102037.41
2019-02-06T09:14:00.018Z,102038.67
2019-02-06T09:15:04.305Z,102035.73
2019-02-06T09:16:08.914Z,102041.59
2019-02-06T09:17:13.224Z,102037.31
2019-02-06T09:18:17.786Z,102039.22
2019-02-06T09:19:22.076Z,102042.56
2019-02-06T09:20:26.855Z,102043.59
2019-02-06T09:21:33.047Z,102040.36
2019-02-06T09:22:37.895Z,102040.62
2019-02-06T09:23:42.478Z,102041.32
2019-02-06T09:24:47.590Z,102043.39
2019-02-06T09:25:52.393Z,102046.28
2019-02-06T09:26:56.984Z,102046.91
2019-02-06T09:28:01.534Z,102051.08
2019-02-06T09:29:06.206Z,102050.77
2019-02-06T09:30:12.699Z,102045.16
2019-02-06T09:31:17.014Z,102046.30
2019-02-06T09:32:21.314Z,102048.95
2019-02-06T09:33:26.483Z,102047.73
2019-02-06T09:34:31.118Z,102051.88
2019-02-06T09:35:35.538Z,102044.23
2019-02-06T09:36:40.109Z,102046.28
2019-02-06T09:37:44.451Z,102047.02
2019-02-06T09:38:48.856Z,102046.77
2019-02-06T09:39:53.220Z,102049.86
2019-02-06T09:40:58.008Z,102046.67
2019-02-06T09:42:02.859Z,102050.37
2019-02-06T09:43:07.222Z,102046.59
2019-02-06T09:44:11.772Z,102055.84
2019-02-06T09:45:16.724Z,102044.09
2019-02-06T09:46:21.312Z,102050.59
2019-02-06T09:47:26.145Z,102047.16
2019-02-06T09:48:31.502Z,102054.95
2019-02-06T09:49:36.330Z,102061.48
2019-02-06T09:50:41.385Z,102050.09
2019-02-06T09:51:45.940Z,102055.06
2019-02-06T09:52:51.060Z,102058.19
2019-02-06T09:53:55.353Z,102049.53
2019-02-06T09:54:59.920Z,102048.17
2019-02-06T09:56:04.218Z,102049.33
2019-02-06T09:57:09.050Z,102048.92
2019-02-06T09:58:13.623Z,102041.94
2019-02-06T09:59:18.588Z,102051.29
2019-02-06T10:00:27.980Z,102046.92
2019-02-06T10:01:32.414Z,102046.45
2019-02-06T10:02:37.076Z,102048.05
2019-02-06T10:03:41.398Z,102045.91
2019-02-06T10:04:45.749Z,102046.39
2019-02-06T10:05:50.315Z,102044.97
2019-02-06T10:06:54.543Z,102044.08
2019-02-06T10:07:59.129Z,102046.77
2019-02-06T10:09:04.654Z,102059.92
2019-02-06T10:10:15.262Z,102050.73
2019-02-06T10:11:20.099Z,102052.58
2019-02-06T10:12:24.426Z,102053.95
2019-02-06T10:13:28.705Z,102060.27
2019-02-06T10:14:33.893Z,102054.98
2019-02-06T10:15:39.117Z,102055.54
2019-02-06T10:16:43.481Z,102052.57
2019-02-06T10:17:48.257Z,102053.38
2019-02-06T10:18:53.235Z,102044.84
2019-02-06T10:19:57.307Z,102047.53
2019-02-06T10:21:01.892Z,102046.64
2019-02-06T10:22:06.457Z,102047.20
2019-02-06T10:23:11.128Z,102048.20
2019-02-06T10:24:15.726Z,102051.65
2019-02-06T10:25:20.326Z,102060.45
2019-02-06T10:26:24.915Z,102055.95
2019-02-06T10:27:29.205Z,102055.76
2019-02-06T10:28:34.031Z,102050.30
2019-02-06T10:29:38.088Z,102045.78
2019-02-06T10:30:47.903Z,102048.88
2019-02-06T10:31:52.462Z,102042.34
2019-02-06T10:32:57.336Z,102035.97
2019-02-06T10:34:01.662Z,102035.64
2019-02-06T10:35:06.932Z,102037.13
2019-02-06T10:36:11.255Z,102039.67
2019-02-06T10:37:15.555Z,102040.33
2019-02-06T10:38:19.885Z,102040.03
2019-02-06T10:39:34.342Z,102046.89
2019-02-06T10:40:30.689Z,102044.02
2019-02-06T10:41:35.351Z,102041.45
2019-02-06T10:42:39.636Z,102049.97
2019-02-06T10:43:44.197Z,102040.45
2019-02-06T10:44:48.781Z,102042.33
2019-02-06T10:45:53.115Z,102037.97
2019-02-06T10:46:57.699Z,102037.41
2019-02-06T10:48:02.006Z,102041.13
2019-02-06T10:49:06.694Z,102035.72
2019-02-06T10:50:12.995Z,102041.47
2019-02-06T10:51:17.840Z,102039.84
2019-02-06T10:52:22.427Z,102046.39
2019-02-06T10:53:27.647Z,102037.49
2019-02-06T10:54:32.364Z,102036.74
2019-02-06T10:55:36.923Z,102034.24
2019-02-06T10:56:41.322Z,102030.59
2019-02-06T10:57:45.894Z,102029.98
2019-02-06T10:58:50.482Z,102025.28
2019-02-06T10:59:55.331Z,102026.29
2019-02-06T11:01:01.727Z,102036.72
2019-02-06T11:02:05.949Z,102021.49
2019-02-06T11:03:10.253Z,102025.38
2019-02-06T11:04:14.862Z,102025.31
2019-02-06T11:05:19.454Z,102020.68
2019-02-06T11:06:23.748Z,102009.63
2019-02-06T11:07:28.364Z,102012.19
2019-02-06T11:08:32.772Z,102015.89
2019-02-06T11:09:46.060Z,102013.11
2019-02-06T11:10:43.568Z,102007.13
2019-02-06T11:11:47.911Z,102008.27
2019-02-06T11:12:52.229Z,102007.03
2019-02-06T11:13:56.797Z,102005.03
2019-02-06T11:15:01.373Z,102000.25
2019-02-06T11:16:05.690Z,102006.22
2019-02-06T11:17:09.891Z,101995.26
2019-02-06T11:18:14.167Z,101991.89
2019-02-06T11:19:19.025Z,101988.97
2019-02-06T11:20:23.210Z,101992.09
2019-02-06T11:21:27.802Z,101987.28
2019-02-06T11:22:33.136Z,101990.80
2019-02-06T11:23:37.428Z,101987.28
2019-02-06T11:24:41.754Z,101980.55
2019-02-06T11:25:46.145Z,101982.63
2019-02-06T11:26:51.084Z,101982.09
2019-02-06T11:27:56.067Z,101983.03
2019-02-06T11:29:00.653Z,101976.00
2019-02-06T11:30:06.925Z,101981.83
2019-02-06T11:31:11.017Z,101973.04
2019-02-06T11:32:15.590Z,101974.42
2019-02-06T11:33:20.176Z,101982.74
2019-02-06T11:34:24.767Z,101976.19
2019-02-06T11:35:29.329Z,101963.88
2019-02-06T11:36:33.683Z,101968.28
2019-02-06T11:37:38.532Z,101965.97
2019-02-06T11:38:42.853Z,101973.66
2019-02-06T11:39:57.621Z,101962.89
2019-02-06T11:40:54.535Z,101962.45
2019-02-06T11:41:59.091Z,101953.48
2019-02-06T11:43:03.951Z,101953.19
2019-02-06T11:44:08.512Z,101954.64
2019-02-06T11:45:15.138Z,101960.64
2019-02-06T11:46:20.091Z,101953.69
2019-02-06T11:47:24.877Z,101955.04
2019-02-06T11:48:29.429Z,101949.20
2019-02-06T11:49:38.677Z,101952.41
2019-02-06T11:50:43.799Z,101952.90
2019-02-06T11:51:48.094Z,101956.95
2019-02-06T11:52:52.807Z,101938.36
2019-02-06T11:53:57.390Z,101938.23
2019-02-06T11:55:02.291Z,101934.69
2019-02-06T11:56:06.582Z,101935.08
2019-02-06T11:57:11.154Z,101934.97
2019-02-06T11:58:15.447Z,101926.34
2019-02-06T11:59:20.053Z,101920.28
2019-02-06T12:00:43.540Z,101916.72
2019-02-06T12:01:51.848Z,101917.13
2019-02-06T12:02:56.160Z,101923.55
2019-02-06T12:04:00.722Z,101916.19
2019-02-06T12:05:05.370Z,101923.30
2019-02-06T12:06:09.706Z,101929.52
2019-02-06T12:07:14.001Z,101918.10
2019-02-06T12:08:19.181Z,101921.32
2019-02-06T12:09:24.336Z,101915.48
2019-02-06T12:10:28.419Z,101913.66
2019-02-06T12:11:33.118Z,101913.46
2019-02-06T12:12:37.183Z,101908.80
2019-02-06T12:13:41.778Z,101904.02
2019-02-06T12:14:46.088Z,101909.97
2019-02-06T12:15:50.145Z,101902.30
2019-02-06T12:16:54.235Z,101899.94
2019-02-06T12:17:59.116Z,101897.05
2019-02-06T12:19:03.478Z,101902.58
2019-02-06T12:20:11.323Z,101905.17
2019-02-06T12:21:18.020Z,101895.67
2019-02-06T12:22:22.195Z,101897.61
2019-02-06T12:23:32.210Z,101890.53
2019-02-06T12:24:33.184Z,101896.14
2019-02-06T12:25:37.770Z,101887.63
2019-02-06T12:26:42.621Z,101896.45
2019-02-06T12:27:47.556Z,101897.10
2019-02-06T12:28:52.103Z,101883.19
2019-02-06T12:29:56.416Z,101887.41
2019-02-06T12:31:00.766Z,101880.23
2019-02-06T12:32:04.827Z,101892.09
2019-02-06T12:33:08.879Z,101885.52
2019-02-06T12:34:13.161Z,101878.63